Time;durP1;ratioP1;P1;durP2;ratioP2;P2;SDS_P1;SDS_P2;PMS_P1;PMS_P2;Temp;Humidity;BMP_temperature;BMP_pressure;BME280_temperature;BME280_humidity;BME280_pressure;Samples;Min_cycle;Max_cycle;Signal;HPM_P1;HPM_P2
2023/09/05 00:00:16;;;;;;;;;;;;;;;23.30;41.20;100834.25;4976798;28;6811;-74
2023/09/05 00:02:44;;;;;;;;;;;;;;;23.29;41.12;100835.97;4966136;28;6800;-75
2023/09/05 00:05:11;;;;;;;;;;;;;;;23.32;41.35;100840.34;4960117;28;7094;-75
2023/09/05 00:07:39;;;;;;;;;;;;;;;23.29;41.02;100835.13;4961880;28;7374;-73
2023/09/05 00:10:07;;;;;;;;;;;;;;;23.27;41.21;100829.84;4967751;28;6881;-73
2023/09/05 00:12:34;;;;;;;;;;;;;;;23.26;41.13;100832.44;4962265;28;7218;-73
2023/09/05 00:14:59;;;;;;;;;;;;;;;23.22;41.07;100826.34;4979447;28;7142;-74
2023/09/05 00:17:25;;;;;;;;;;;;;;;23.16;41.60;100824.59;4962584;28;6951;-73
2023/09/05 00:19:51;;;;;;;;;;;;;;;23.12;41.50;100825.47;4980843;28;6788;-73
2023/09/05 00:22:18;;;;;;;;;;;;;;;23.09;41.67;100817.63;4976238;28;6816;-73
2023/09/05 00:24:44;;;;;;;;;;;;;;;23.08;41.60;100817.59;4980313;28;7242;-73
2023/09/05 00:27:11;;;;;;;;;;;;;;;23.05;41.97;100825.44;4990493;28;6982;-74
2023/09/05 00:29:38;;;;;;;;;;;;;;;23.00;41.68;100821.06;4969227;28;6994;-75
2023/09/05 00:32:04;;;;;;;;;;;;;;;22.98;41.45;100832.38;4958371;28;6988;-75
2023/09/05 00:34:34;;;;;;;;;;;;;;;22.93;42.18;100834.09;4980252;28;7000;-73
2023/09/05 00:37:01;;;;;;;;;;;;;;;22.88;41.93;100840.16;4978247;28;7170;-73
2023/09/05 00:39:30;;;;;;;;;;;;;;;22.85;42.43;100850.63;4960740;28;7154;-73
2023/09/05 00:41:57;;;;;;;;;;;;;;;22.82;42.30;100849.72;4949210;28;6966;-73
2023/09/05 00:44:26;;;;;;;;;;;;;;;22.77;42.16;100856.69;4975783;28;7010;-73
2023/09/05 00:46:54;;;;;;;;;;;;;;;22.71;42.44;100862.75;4973462;28;7058;-74
2023/09/05 00:49:22;;;;;;;;;;;;;;;22.66;42.92;100867.06;4971849;28;7253;-74
2023/09/05 00:51:50;;;;;;;;;;;;;;;22.58;42.84;100873.13;4994210;28;7000;-75
2023/09/05 00:54:17;;;;;;;;;;;;;;;22.48;42.94;100876.50;4961712;28;6981;-76
2023/09/05 00:56:43;;;;;;;;;;;;;;;22.38;43.20;100877.31;4959558;28;7020;-75
2023/09/05 00:59:10;;;;;;;;;;;;;;;22.27;43.71;100879.88;4963135;28;6804;-76
2023/09/05 01:01:35;;;;;;;;;;;;;;;22.16;43.74;100883.28;4973506;28;7064;-75
2023/09/05 01:04:01;;;;;;;;;;;;;;;22.05;44.22;100874.47;4962674;28;6956;-75
2023/09/05 01:06:51;;;;;;;;;;;;;;;21.92;44.52;100889.16;4992757;28;7007;-75
2023/09/05 01:09:45;;;;;;;;;;;;;;;21.78;44.42;100884.69;4965531;28;7366;-75
2023/09/05 01:12:10;;;;;;;;;;;;;;;21.68;44.70;100887.19;4981476;28;7060;-76
2023/09/05 01:14:36;;;;;;;;;;;;;;;21.64;44.71;100881.06;4980625;28;6889;-75
2023/09/05 01:17:01;;;;;;;;;;;;;;;21.57;44.84;100874.03;4962599;28;6944;-76
2023/09/05 01:19:28;;;;;;;;;;;;;;;21.54;45.25;100871.41;4997358;28;6784;-75
2023/09/05 01:22:13;;;;;;;;;;;;;;;21.50;45.04;100871.34;4967564;28;6804;-75
2023/09/05 01:24:40;;;;;;;;;;;;;;;21.47;45.42;100867.81;4959747;28;6851;-75
2023/09/05 01:27:07;;;;;;;;;;;;;;;21.47;45.64;100867.81;4974969;28;7245;-75
2023/09/05 01:29:39;;;;;;;;;;;;;;;21.48;45.57;100867.84;4967092;28;7056;-75
2023/09/05 01:32:08;;;;;;;;;;;;;;;21.53;45.54;100870.50;4964701;28;6800;-76
2023/09/05 01:34:34;;;;;;;;;;;;;;;21.54;45.70;100869.66;4979968;28;6812;-75
2023/09/05 01:36:59;;;;;;;;;;;;;;;21.57;45.52;100869.66;4982152;28;7013;-75
2023/09/05 01:39:25;;;;;;;;;;;;;;;21.57;45.98;100866.19;4970408;28;7336;-75
2023/09/05 01:41:51;;;;;;;;;;;;;;;21.56;46.12;100867.06;4991907;28;6993;-76
2023/09/05 01:44:16;;;;;;;;;;;;;;;21.50;45.84;100855.69;4968282;28;6957;-75
2023/09/05 01:46:42;;;;;;;;;;;;;;;21.44;46.19;100863.47;4995809;28;7161;-76
2023/09/05 01:49:07;;;;;;;;;;;;;;;21.39;46.19;100865.16;4981416;28;6780;-75
2023/09/05 01:51:33;;;;;;;;;;;;;;;21.32;46.61;100866.81;4998970;28;6923;-75
2023/09/05 01:53:58;;;;;;;;;;;;;;;21.25;46.88;100864.13;4964064;28;6796;-75
2023/09/05 01:56:24;;;;;;;;;;;;;;;21.19;46.79;100864.91;4965841;28;6792;-76
2023/09/05 01:58:49;;;;;;;;;;;;;;;21.16;46.91;100864.88;4967498;28;6984;-75
2023/09/05 02:01:15;;;;;;;;;;;;;;;21.12;46.93;100868.34;4967594;28;6922;-75
2023/09/05 02:03:40;;;;;;;;;;;;;;;21.08;47.11;100864.81;4964171;28;7087;-76
2023/09/05 02:06:06;;;;;;;;;;;;;;;21.05;47.10;100862.16;4983663;28;7109;-75
2023/09/05 02:08:34;;;;;;;;;;;;;;;21.01;47.13;100868.19;4969278;28;7344;-76
2023/09/05 02:11:00;;;;;;;;;;;;;;;20.99;47.38;100869.91;4963654;28;7208;-75
2023/09/05 02:13:26;;;;;;;;;;;;;;;20.95;47.48;100864.63;4980394;28;6800;-75
2023/09/05 02:15:51;;;;;;;;;;;;;;;20.95;47.30;100867.25;4967474;28;6868;-76
2023/09/05 02:18:17;;;;;;;;;;;;;;;20.95;47.28;100858.56;4984165;28;7078;-75
2023/09/05 02:20:42;;;;;;;;;;;;;;;20.96;47.86;100860.31;4980857;28;6860;-75
2023/09/05 02:23:08;;;;;;;;;;;;;;;20.99;47.68;100854.28;4971194;28;6795;-76
2023/09/05 02:25:33;;;;;;;;;;;;;;;21.00;47.60;100849.06;4968097;28;7076;-76
2023/09/05 02:27:59;;;;;;;;;;;;;;;21.03;47.62;100848.22;4998401;28;7214;-76
2023/09/05 02:30:25;;;;;;;;;;;;;;;21.03;47.61;100846.50;4968044;28;7064;-75
2023/09/05 02:32:52;;;;;;;;;;;;;;;21.04;47.90;100845.66;4964891;28;7237;-76
2023/09/05 02:35:20;;;;;;;;;;;;;;;21.06;47.62;100840.47;4980944;28;7051;-76
2023/09/05 02:37:48;;;;;;;;;;;;;;;21.09;47.39;100848.31;4980286;28;7005;-76
2023/09/05 02:40:14;;;;;;;;;;;;;;;21.09;47.50;100845.72;4967089;28;6903;-76
2023/09/05 02:42:39;;;;;;;;;;;;;;;21.10;47.73;100852.66;4965405;28;6803;-76
2023/09/05 02:45:05;;;;;;;;;;;;;;;21.08;47.61;100852.63;4972558;28;7140;-76
2023/09/05 02:47:31;;;;;;;;;;;;;;;21.05;47.83;100859.53;4981435;28;7011;-76
2023/09/05 02:49:56;;;;;;;;;;;;;;;21.02;47.80;100855.19;4967976;28;6941;-76
2023/09/05 02:52:24;;;;;;;;;;;;;;;21.01;47.74;100850.84;4965108;28;7133;-75
2023/09/05 02:54:50;;;;;;;;;;;;;;;20.99;47.91;100846.47;4969460;28;6812;-76
2023/09/05 02:57:16;;;;;;;;;;;;;;;20.99;47.79;100846.47;4962909;28;6964;-76
2023/09/05 02:59:41;;;;;;;;;;;;;;;20.98;47.95;100842.97;4967309;28;7169;-76
2023/09/05 03:02:06;;;;;;;;;;;;;;;20.99;48.21;100846.47;4978949;28;7300;-76
2023/09/05 03:04:32;;;;;;;;;;;;;;;21.00;47.88;100840.38;4979854;28;6954;-75
2023/09/05 03:07:01;;;;;;;;;;;;;;;21.00;48.00;100841.25;4982824;28;7373;-76
2023/09/05 03:09:28;;;;;;;;;;;;;;;21.02;48.13;100843.88;4982310;28;6991;-76
2023/09/05 03:11:53;;;;;;;;;;;;;;;21.01;47.78;100840.41;4964811;28;7062;-75
2023/09/05 03:14:19;;;;;;;;;;;;;;;21.01;47.89;100842.13;4955702;28;7200;-75
2023/09/05 03:16:44;;;;;;;;;;;;;;;20.99;47.89;100847.31;4954734;28;7280;-76
2023/09/05 03:19:11;;;;;;;;;;;;;;;21.00;48.17;100840.38;4966334;28;6867;-76
2023/09/05 03:21:40;;;;;;;;;;;;;;;20.99;47.99;100843.84;4960635;28;6969;-76
2023/09/05 03:24:05;;;;;;;;;;;;;;;20.98;48.11;100847.31;4972131;28;6996;-76
2023/09/05 03:26:31;;;;;;;;;;;;;;;20.97;48.41;100851.63;4971774;28;6935;-75
2023/09/05 03:28:58;;;;;;;;;;;;;;;20.94;48.37;100847.25;4989546;28;6970;-75
2023/09/05 03:31:24;;;;;;;;;;;;;;;20.93;48.24;100853.31;4963384;28;8034;-75
2023/09/05 03:33:50;;;;;;;;;;;;;;;20.91;48.22;100849.84;4964282;28;6970;-76
2023/09/05 03:36:16;;;;;;;;;;;;;;;20.90;48.16;100844.59;4995271;28;6961;-75
2023/09/05 03:38:41;;;;;;;;;;;;;;;20.88;47.96;100847.19;4982838;28;6791;-76
2023/09/05 03:41:08;;;;;;;;;;;;;;;20.87;48.02;100853.28;4960180;28;6859;-75
2023/09/05 03:43:33;;;;;;;;;;;;;;;20.86;48.07;100848.91;4980708;28;7097;-75
2023/09/05 03:45:59;;;;;;;;;;;;;;;20.84;48.30;100845.41;4964465;28;6795;-75
2023/09/05 03:48:25;;;;;;;;;;;;;;;20.79;48.29;100853.13;4981521;28;7322;-76
2023/09/05 03:50:50;;;;;;;;;;;;;;;20.75;48.20;100848.75;4959194;28;6866;-75
2023/09/05 03:53:15;;;;;;;;;;;;;;;20.73;48.58;100855.66;4965693;28;7300;-75
2023/09/05 03:55:41;;;;;;;;;;;;;;;20.68;48.64;100841.69;4961844;28;7044;-75
2023/09/05 03:58:07;;;;;;;;;;;;;;;20.63;48.38;100839.03;4964470;28;7150;-76
2023/09/05 04:00:33;;;;;;;;;;;;;;;20.58;48.70;100838.09;4978405;28;6808;-75
2023/09/05 04:03:02;;;;;;;;;;;;;;;20.52;48.89;100840.63;4962916;28;7132;-75
2023/09/05 04:05:28;;;;;;;;;;;;;;;20.46;48.83;100840.50;4978676;28;7169;-76
2023/09/05 04:07:53;;;;;;;;;;;;;;;20.40;48.89;100834.38;4977409;28;7194;-75
2023/09/05 04:10:19;;;;;;;;;;;;;;;20.33;49.27;100840.34;4996883;28;6860;-75
2023/09/05 04:12:44;;;;;;;;;;;;;;;20.29;49.29;100851.59;4993776;28;6816;-76
2023/09/05 04:15:10;;;;;;;;;;;;;;;20.23;49.46;100843.66;4978860;28;6799;-75
2023/09/05 04:17:37;;;;;;;;;;;;;;;20.18;49.70;100842.72;4963011;28;6948;-75
2023/09/05 04:20:06;;;;;;;;;;;;;;;20.13;49.91;100842.63;4965099;28;6824;-76
2023/09/05 04:22:31;;;;;;;;;;;;;;;20.07;49.98;100843.41;4965564;28;6815;-75
2023/09/05 04:24:57;;;;;;;;;;;;;;;20.04;49.84;100845.09;4972598;28;6973;-75
2023/09/05 04:27:23;;;;;;;;;;;;;;;20.01;49.83;100850.25;4983474;28;7284;-74
2023/09/05 04:29:54;;;;;;;;;;;;;;;19.98;50.40;100856.28;4967898;28;7014;-75
2023/09/05 04:32:31;;;;;;;;;;;;;;;19.94;50.07;100855.38;4951173;28;7648;-75
2023/09/05 04:35:00;;;;;;;;;;;;;;;19.92;50.00;100850.97;4977032;28;6895;-75
2023/09/05 04:37:26;;;;;;;;;;;;;;;19.89;50.27;100861.28;4960321;28;7277;-76
2023/09/05 04:39:52;;;;;;;;;;;;;;;19.89;50.38;100854.38;4962804;28;6788;-76
2023/09/05 04:42:17;;;;;;;;;;;;;;;19.91;50.97;100859.63;4958249;28;6942;-76
2023/09/05 04:44:43;;;;;;;;;;;;;;;19.91;50.59;100859.63;4962918;28;6788;-76
2023/09/05 04:47:22;;;;;;;;;;;;;;;19.93;50.72;100855.31;4975854;28;7032;-76
2023/09/05 04:49:49;;;;;;;;;;;;;;;19.95;50.75;100851.94;4979169;28;7123;-75
2023/09/05 04:52:16;;;;;;;;;;;;;;;19.97;50.95;100846.72;4974631;28;6994;-75
2023/09/05 04:54:41;;;;;;;;;;;;;;;19.99;50.77;100855.47;4990903;28;7231;-76
2023/09/05 04:57:07;;;;;;;;;;;;;;;20.02;50.59;100858.09;4958970;28;6859;-76
2023/09/05 04:59:32;;;;;;;;;;;;;;;20.05;50.51;100859.88;4963353;28;6955;-77
2023/09/05 05:01:58;;;;;;;;;;;;;;;20.07;50.73;100866.84;4953347;28;7219;-76
2023/09/05 05:04:23;;;;;;;;;;;;;;;20.08;50.82;100865.97;4965522;28;7214;-76
2023/09/05 05:06:49;;;;;;;;;;;;;;;20.10;50.46;100874.72;4957616;28;6822;-75
2023/09/05 05:09:14;;;;;;;;;;;;;;;20.11;50.84;100878.16;4978674;28;7189;-76
2023/09/05 05:11:40;;;;;;;;;;;;;;;20.11;50.78;100870.38;4956792;28;6792;-76
2023/09/05 05:14:05;;;;;;;;;;;;;;;20.12;50.73;100880.81;4975796;28;7297;-75
2023/09/05 05:16:30;;;;;;;;;;;;;;;20.11;50.81;100871.25;4960551;28;6780;-75
2023/09/05 05:18:56;;;;;;;;;;;;;;;20.12;50.97;100874.72;4978723;28;7302;-76
2023/09/05 05:21:22;;;;;;;;;;;;;;;20.14;51.01;100866.94;4936723;28;7252;-75
2023/09/05 05:23:47;;;;;;;;;;;;;;;20.18;50.77;100871.34;4977904;28;6792;-75
2023/09/05 05:26:13;;;;;;;;;;;;;;;20.22;50.97;100878.34;4960025;28;6796;-75
2023/09/05 05:28:38;;;;;;;;;;;;;;;20.27;51.24;100874.09;4990266;28;7252;-75
2023/09/05 05:31:12;;;;;;;;;;;;;;;20.31;50.81;100881.09;4973504;28;7231;-74
2023/09/05 05:33:37;;;;;;;;;;;;;;;20.38;50.87;100885.56;4959189;28;7225;-75
2023/09/05 05:36:03;;;;;;;;;;;;;;;20.44;50.79;100889.97;4973104;28;6974;-75
2023/09/05 05:38:28;;;;;;;;;;;;;;;20.50;50.63;100890.06;4977125;28;6962;-75
2023/09/05 05:40:54;;;;;;;;;;;;;;;20.58;50.56;100887.56;4963615;28;6872;-75
2023/09/05 05:43:20;;;;;;;;;;;;;;;20.66;50.81;100891.13;4978881;28;6988;-75
2023/09/05 05:45:47;;;;;;;;;;;;;;;20.76;50.30;100883.44;4960772;28;6882;-75
2023/09/05 05:48:13;;;;;;;;;;;;;;;20.84;50.10;100894.03;4957889;28;6923;-75
2023/09/05 05:50:38;;;;;;;;;;;;;;;20.90;50.16;100888.88;4963979;28;7214;-75
2023/09/05 05:53:04;;;;;;;;;;;;;;;20.95;50.11;100882.88;4964506;28;7163;-75
2023/09/05 05:55:29;;;;;;;;;;;;;;;21.02;50.09;100888.19;4961820;28;7273;-75
2023/09/05 05:57:55;;;;;;;;;;;;;;;21.08;49.66;100890.88;4973659;28;7237;-75
2023/09/05 06:00:20;;;;;;;;;;;;;;;21.15;49.68;100894.41;4982252;28;6788;-75
2023/09/05 06:02:45;;;;;;;;;;;;;;;21.22;49.58;100896.25;4995814;28;6991;-75
2023/09/05 06:05:11;;;;;;;;;;;;;;;21.26;49.57;100895.41;4960183;28;6815;-75
2023/09/05 06:07:36;;;;;;;;;;;;;;;21.32;49.72;100894.59;4976501;28;8372;-74
2023/09/05 06:10:02;;;;;;;;;;;;;;;21.37;49.40;100882.50;4968534;28;7175;-75
2023/09/05 06:12:28;;;;;;;;;;;;;;;21.43;49.38;100881.69;4996587;28;6987;-75
2023/09/05 06:14:53;;;;;;;;;;;;;;;21.47;49.44;100889.56;4976875;28;6991;-75
2023/09/05 06:17:19;;;;;;;;;;;;;;;21.53;49.42;100886.16;4968951;28;6972;-75
2023/09/05 06:19:44;;;;;;;;;;;;;;;21.59;49.07;100891.44;4968699;28;6927;-75
2023/09/05 06:22:10;;;;;;;;;;;;;;;21.65;49.15;100888.03;4945686;28;7105;-75
2023/09/05 06:24:35;;;;;;;;;;;;;;;21.71;48.60;100888.09;4960400;28;7038;-75
2023/09/05 06:27:01;;;;;;;;;;;;;;;21.77;48.61;100892.50;4967769;28;7154;-75
2023/09/05 06:29:26;;;;;;;;;;;;;;;21.85;48.76;100897.81;4981665;28;6848;-75
2023/09/05 06:31:52;;;;;;;;;;;;;;;21.93;48.52;100903.97;4959512;28;7906;-75
2023/09/05 06:34:17;;;;;;;;;;;;;;;21.99;48.36;100904.00;4976795;28;7198;-75
2023/09/05 06:36:43;;;;;;;;;;;;;;;22.06;48.07;100899.72;4978749;28;6891;-75
2023/09/05 06:39:08;;;;;;;;;;;;;;;22.11;48.39;100902.34;4979860;28;6832;-75
2023/09/05 06:41:35;;;;;;;;;;;;;;;22.16;47.99;100898.06;4965983;28;7278;-76
2023/09/05 06:44:00;;;;;;;;;;;;;;;22.23;48.30;100897.25;4980649;28;7233;-75
2023/09/05 06:46:26;;;;;;;;;;;;;;;22.28;48.50;100890.31;4972666;28;9921;-76
2023/09/05 06:48:51;;;;;;;;;;;;;;;22.34;47.87;100906.03;4977703;28;6807;-75
2023/09/05 06:51:17;;;;;;;;;;;;;;;22.41;48.15;100898.25;4962099;28;6957;-75
2023/09/05 06:53:42;;;;;;;;;;;;;;;22.46;48.27;100896.53;4963273;28;7081;-75
2023/09/05 06:56:08;;;;;;;;;;;;;;;22.53;48.06;100898.34;4979578;28;6792;-75
2023/09/05 06:58:33;;;;;;;;;;;;;;;22.58;48.51;100895.78;4965571;28;7107;-75
2023/09/05 07:01:04;;;;;;;;;;;;;;;22.64;48.09;100895.78;4964381;28;6800;-75
2023/09/05 07:03:30;;;;;;;;;;;;;;;22.70;47.74;100902.81;4957145;28;6811;-76
2023/09/05 07:05:56;;;;;;;;;;;;;;;22.74;47.74;100894.13;4956031;28;7310;-75
2023/09/05 07:08:22;;;;;;;;;;;;;;;22.80;47.43;100894.16;4965063;28;6842;-75
2023/09/05 07:10:48;;;;;;;;;;;;;;;22.86;47.58;100896.78;4966554;28;6792;-75
2023/09/05 07:13:14;;;;;;;;;;;;;;;22.92;47.91;100895.09;4979312;28;6780;-75
2023/09/05 07:15:39;;;;;;;;;;;;;;;22.98;47.72;100895.97;4965585;28;6767;-75
2023/09/05 07:18:05;;;;;;;;;;;;;;;23.06;48.03;100890.78;4965280;28;6972;-75
2023/09/05 07:20:31;;;;;;;;;;;;;;;23.14;47.63;100891.69;4966022;28;6971;-75
2023/09/05 07:22:57;;;;;;;;;;;;;;;23.27;47.31;100899.56;4998664;28;7085;-75
2023/09/05 07:25:22;;;;;;;;;;;;;;;23.35;47.58;100891.78;4950497;28;7308;-75
2023/09/05 07:27:48;;;;;;;;;;;;;;;23.45;47.48;100890.94;4962037;28;7082;-75
2023/09/05 07:30:16;;;;;;;;;;;;;;;23.54;47.41;100892.69;4981110;28;6931;-75
2023/09/05 07:32:42;;;;;;;;;;;;;;;23.62;47.06;100893.59;4966039;28;7019;-75
2023/09/05 07:35:08;;;;;;;;;;;;;;;23.71;47.15;100896.22;4962773;28;8153;-75
2023/09/05 07:37:33;;;;;;;;;;;;;;;23.81;46.60;100896.22;4980180;28;7405;-75
2023/09/05 07:39:59;;;;;;;;;;;;;;;23.89;46.62;100889.25;4965157;28;6974;-75
2023/09/05 07:42:24;;;;;;;;;;;;;;;23.99;46.21;100880.53;4976918;28;6993;-76
2023/09/05 07:44:51;;;;;;;;;;;;;;;24.10;46.42;100877.97;4961216;28;6957;-75
2023/09/05 07:47:16;;;;;;;;;;;;;;;24.20;45.93;100881.41;4975504;28;6978;-75
2023/09/05 07:49:42;;;;;;;;;;;;;;;24.30;45.64;100878.78;4991505;28;7117;-75
2023/09/05 07:52:08;;;;;;;;;;;;;;;24.39;45.45;100878.78;4989640;28;7240;-75
2023/09/05 07:54:35;;;;;;;;;;;;;;;24.50;45.55;100876.16;4954213;28;6820;-75
2023/09/05 07:57:01;;;;;;;;;;;;;;;24.60;45.62;100872.63;4979572;28;7046;-76
2023/09/05 07:59:26;;;;;;;;;;;;;;;24.69;45.68;100872.59;4962077;28;6800;-76
2023/09/05 08:01:52;;;;;;;;;;;;;;;24.79;45.06;100875.22;4974231;28;6863;-75
2023/09/05 08:04:17;;;;;;;;;;;;;;;24.89;44.63;100863.81;4964212;28;6983;-76
2023/09/05 08:06:43;;;;;;;;;;;;;;;24.99;44.63;100862.00;4976799;28;6832;-75
2023/09/05 08:09:09;;;;;;;;;;;;;;;25.08;44.77;100872.47;4957654;28;7247;-76
2023/09/05 08:11:34;;;;;;;;;;;;;;;25.19;44.43;100858.41;4952729;28;7470;-76
2023/09/05 08:14:00;;;;;;;;;;;;;;;25.28;44.34;100862.75;4960494;28;6788;-76
2023/09/05 08:16:25;;;;;;;;;;;;;;;25.37;43.89;100860.94;4992576;28;6860;-76
2023/09/05 08:18:51;;;;;;;;;;;;;;;25.49;44.38;100864.34;4960358;28;7133;-76
2023/09/05 08:21:17;;;;;;;;;;;;;;;25.59;43.91;100860.84;4972725;28;6951;-75
2023/09/05 08:23:44;;;;;;;;;;;;;;;25.70;43.33;100867.78;4958585;28;7216;-76
2023/09/05 08:26:10;;;;;;;;;;;;;;;25.77;43.16;100869.44;4975134;28;7183;-76
2023/09/05 08:28:42;;;;;;;;;;;;;;;25.88;43.20;100851.88;4993438;28;6815;-75
2023/09/05 08:31:08;;;;;;;;;;;;;;;25.98;43.08;100872.75;4959336;28;7091;-76
2023/09/05 08:33:34;;;;;;;;;;;;;;;26.07;42.84;100867.44;4963105;28;6951;-76
2023/09/05 08:35:59;;;;;;;;;;;;;;;26.16;42.72;100861.25;4976508;28;8324;-76
2023/09/05 08:38:25;;;;;;;;;;;;;;;26.26;42.67;100865.56;4952619;28;6784;-77
2023/09/05 08:40:50;;;;;;;;;;;;;;;26.35;42.42;100867.19;4949240;28;8197;-75
2023/09/05 08:43:17;;;;;;;;;;;;;;;26.42;42.45;100868.88;4955439;28;7296;-75
2023/09/05 08:45:48;;;;;;;;;;;;;;;26.52;42.04;100866.16;4960471;28;6873;-76
2023/09/05 08:48:14;;;;;;;;;;;;;;;26.59;42.21;100873.09;4975805;28;6867;-75
2023/09/05 08:50:41;;;;;;;;;;;;;;;26.68;42.20;100867.72;4975285;28;6995;-76
2023/09/05 08:53:14;;;;;;;;;;;;;;;26.76;42.22;100860.63;4979964;28;7007;-75
2023/09/05 08:55:40;;;;;;;;;;;;;;;26.86;41.51;100857.88;4953049;28;7262;-75
2023/09/05 08:58:10;;;;;;;;;;;;;;;26.93;41.93;100854.28;4955993;28;7001;-76
2023/09/05 09:00:36;;;;;;;;;;;;;;;27.01;41.56;100862.97;4973767;28;7239;-75
2023/09/05 09:03:04;;;;;;;;;;;;;;;27.10;41.48;100858.47;4962292;28;7215;-76
2023/09/05 09:05:30;;;;;;;;;;;;;;;27.21;41.34;100864.44;4972769;28;6816;-75
2023/09/05 09:07:56;;;;;;;;;;;;;;;27.30;41.46;100856.41;4973883;28;6776;-76
2023/09/05 09:10:21;;;;;;;;;;;;;;;27.41;41.17;100856.28;4994636;28;6860;-76
2023/09/05 09:12:55;;;;;;;;;;;;;;;27.52;40.90;100857.88;4969284;28;6779;-76
2023/09/05 09:15:24;;;;;;;;;;;;;;;27.62;41.25;100854.22;4968954;28;6836;-76
2023/09/05 09:17:51;;;;;;;;;;;;;;;27.71;40.65;100858.47;4962693;28;6882;-77
2023/09/05 09:20:18;;;;;;;;;;;;;;;27.81;40.89;100854.78;4975287;28;6994;-76
2023/09/05 09:22:44;;;;;;;;;;;;;;;27.94;40.83;100851.97;4975057;28;6812;-76
2023/09/05 09:25:14;;;;;;;;;;;;;;;28.02;40.65;100842.16;4975069;28;7009;-75
2023/09/05 09:27:42;;;;;;;;;;;;;;;28.13;40.20;100845.47;4974648;28;7001;-76
2023/09/05 09:30:09;;;;;;;;;;;;;;;28.24;40.75;100840.00;4958967;28;6842;-76
2023/09/05 09:32:39;;;;;;;;;;;;;;;28.35;40.36;100845.09;4979603;28;11406;-76
2023/09/05 09:35:06;;;;;;;;;;;;;;;28.48;40.36;100844.84;4965241;28;6811;-76
2023/09/05 09:37:33;;;;;;;;;;;;;;;28.59;39.91;100837.59;4999144;28;7257;-75
2023/09/05 09:40:06;;;;;;;;;;;;;;;28.71;40.83;100831.19;4999223;28;6966;-76
2023/09/05 09:42:33;;;;;;;;;;;;;;;28.85;40.23;100844.13;4968140;28;6830;-76
2023/09/05 09:44:59;;;;;;;;;;;;;;;29.01;39.65;100838.50;4968049;28;6890;-76
2023/09/05 09:47:30;;;;;;;;;;;;;;;29.18;40.44;100846.94;4982918;28;6891;-76
2023/09/05 09:49:58;;;;;;;;;;;;;;;29.39;39.57;100842.03;4975736;28;7165;-76
2023/09/05 09:52:24;;;;;;;;;;;;;;;29.71;39.47;100839.56;4975727;28;7068;-75
2023/09/05 09:54:55;;;;;;;;;;;;;;;30.10;38.68;100836.81;4961888;28;6804;-76
2023/09/05 09:57:38;;;;;;;;;;;;;;;30.65;38.45;100832.69;4981661;28;7265;-76
2023/09/05 10:00:09;;;;;;;;;;;;;;;31.34;37.52;100826.19;4957073;28;6808;-74
2023/09/05 10:02:38;;;;;;;;;;;;;;;32.33;36.17;100821.97;4958356;28;7265;-72
2023/09/05 10:05:05;;;;;;;;;;;;;;;33.40;34.28;100812.56;4980146;28;7002;-75
2023/09/05 10:07:32;;;;;;;;;;;;;;;34.45;32.98;100801.84;4997707;28;6994;-75
2023/09/05 10:09:59;;;;;;;;;;;;;;;35.39;31.61;100808.13;4978248;28;6996;-75
2023/09/05 10:12:25;;;;;;;;;;;;;;;36.29;30.71;100806.19;4976107;28;7019;-75
2023/09/05 10:14:51;;;;;;;;;;;;;;;37.04;29.25;100813.66;4962574;28;7549;-75
2023/09/05 10:17:17;;;;;;;;;;;;;;;37.64;28.87;100814.66;4992561;28;7318;-76
2023/09/05 10:19:44;;;;;;;;;;;;;;;38.17;27.96;100808.81;4963775;28;6908;-74
2023/09/05 10:22:10;;;;;;;;;;;;;;;38.79;27.04;100809.41;4967951;28;7130;-73
2023/09/05 10:24:37;;;;;;;;;;;;;;;39.28;26.38;100810.69;4964453;28;6863;-73
2023/09/05 10:27:03;;;;;;;;;;;;;;;39.61;25.90;100811.19;4992931;28;7156;-73
2023/09/05 10:29:43;;;;;;;;;;;;;;;39.84;25.09;100816.78;4960968;28;6836;-74
2023/09/05 10:32:14;;;;;;;;;;;;;;;39.90;24.71;100816.38;4964423;28;6899;-73
2023/09/05 10:34:45;;;;;;;;;;;;;;;40.01;24.46;100809.41;4959747;28;7065;-74
2023/09/05 10:37:17;;;;;;;;;;;;;;;40.13;24.70;100811.19;4961780;28;7448;-74
2023/09/05 10:39:47;;;;;;;;;;;;;;;40.31;24.54;100800.13;4993391;28;6816;-74
2023/09/05 10:42:13;;;;;;;;;;;;;;;40.56;24.59;100809.97;4992417;28;7001;-74
2023/09/05 10:44:46;;;;;;;;;;;;;;;40.80;23.72;100799.25;4955778;28;6804;-74
2023/09/05 10:47:29;;;;;;;;;;;;;;;41.08;23.68;100799.88;4961212;28;6788;-75
2023/09/05 10:50:09;;;;;;;;;;;;;;;41.35;23.42;100803.28;4985645;28;6861;-75
2023/09/05 10:52:35;;;;;;;;;;;;;;;41.59;22.72;100803.22;4987313;28;6808;-74
2023/09/05 10:55:29;;;;;;;;;;;;;;;41.67;22.46;100799.94;4964092;28;6816;-75
2023/09/05 10:57:56;;;;;;;;;;;;;;;41.82;22.81;100799.72;4962859;28;6827;-75
2023/09/05 11:00:26;;;;;;;;;;;;;;;41.95;22.59;100797.75;4994425;28;6799;-75
2023/09/05 11:02:54;;;;;;;;;;;;;;;42.13;22.36;100791.94;4976437;28;7342;-75
2023/09/05 11:05:20;;;;;;;;;;;;;;;42.32;22.05;100786.75;4961893;28;7134;-74
2023/09/05 11:07:46;;;;;;;;;;;;;;;42.47;22.03;100790.03;4955183;28;7023;-75
2023/09/05 11:10:37;;;;;;;;;;;;;;;42.61;21.34;100774.63;4964966;28;6780;-75
2023/09/05 11:13:11;;;;;;;;;;;;;;;42.64;21.04;100776.19;4958318;28;7058;-74
2023/09/05 11:15:43;;;;;;;;;;;;;;;42.74;21.47;100775.28;4954202;28;6934;-74
2023/09/05 11:18:11;;;;;;;;;;;;;;;42.83;20.74;100772.81;4960029;28;6876;-74
2023/09/05 11:20:40;;;;;;;;;;;;;;;42.83;20.69;100783.59;4977090;28;7153;-74
2023/09/05 11:23:20;;;;;;;;;;;;;;;42.69;20.75;100782.06;4961088;28;6824;-74
2023/09/05 11:25:46;;;;;;;;;;;;;;;42.55;20.66;100785.88;4995280;28;6839;-74
2023/09/05 11:28:13;;;;;;;;;;;;;;;42.63;21.04;100786.13;4961916;28;7310;-74
2023/09/05 11:30:40;;;;;;;;;;;;;;;42.75;20.64;100786.94;4994584;28;7018;-73
2023/09/05 11:33:10;;;;;;;;;;;;;;;42.83;20.66;100789.00;4962724;28;6960;-74
2023/09/05 11:35:38;;;;;;;;;;;;;;;43.01;21.02;100782.09;4971734;28;7331;-73
2023/09/05 11:38:03;;;;;;;;;;;;;;;43.22;20.62;100783.94;4977843;28;6815;-74
2023/09/05 11:40:30;;;;;;;;;;;;;;;43.30;20.67;100776.03;4970454;28;6940;-74
2023/09/05 11:43:07;;;;;;;;;;;;;;;43.36;20.32;100773.81;4990733;28;6808;-75
2023/09/05 11:45:37;;;;;;;;;;;;;;;43.49;20.49;100785.28;4962923;28;7314;-74
2023/09/05 11:48:11;;;;;;;;;;;;;;;43.59;20.14;100774.53;4979566;28;6812;-74
2023/09/05 11:50:38;;;;;;;;;;;;;;;43.67;20.17;100772.00;4945093;28;7249;-74
2023/09/05 11:53:05;;;;;;;;;;;;;;;43.62;20.00;100776.09;4971258;28;7224;-74
2023/09/05 11:55:31;;;;;;;;;;;;;;;43.60;19.84;100775.38;4979678;28;7212;-73
2023/09/05 11:57:58;;;;;;;;;;;;;;;43.50;19.80;100775.31;4972845;28;6969;-73
2023/09/05 12:00:26;;;;;;;;;;;;;;;43.39;20.06;100776.28;4990834;28;7111;-74
2023/09/05 12:02:56;;;;;;;;;;;;;;;43.39;20.13;100768.19;4990627;28;6832;-73
2023/09/05 12:05:22;;;;;;;;;;;;;;;43.45;19.90;100764.94;4984760;28;7161;-74
2023/09/05 12:07:55;;;;;;;;;;;;;;;43.51;20.06;100768.94;4975833;28;7019;-74
2023/09/05 12:10:27;;;;;;;;;;;;;;;43.55;19.79;100762.31;4993294;28;6816;-74
2023/09/05 12:13:04;;;;;;;;;;;;;;;43.45;19.91;100766.78;4963446;28;7178;-74
2023/09/05 12:15:37;;;;;;;;;;;;;;;43.47;19.59;100764.81;4989413;28;7089;-74
2023/09/05 12:18:04;;;;;;;;;;;;;;;43.52;19.57;100763.41;4958377;28;6825;-74
2023/09/05 12:20:33;;;;;;;;;;;;;;;43.50;19.41;100754.59;4963026;28;6796;-74
2023/09/05 12:22:59;;;;;;;;;;;;;;;43.38;19.15;100755.69;4976252;28;6824;-74
2023/09/05 12:25:28;;;;;;;;;;;;;;;43.34;19.70;100748.81;4965986;28;7053;-74
2023/09/05 12:27:55;;;;;;;;;;;;;;;43.30;19.64;100749.06;4954485;28;6847;-73
2023/09/05 12:30:30;;;;;;;;;;;;;;;43.18;19.84;100749.28;4964779;28;6808;-74
2023/09/05 12:33:01;;;;;;;;;;;;;;;43.07;19.92;100750.19;4978911;28;7227;-74
2023/09/05 12:35:28;;;;;;;;;;;;;;;43.06;19.65;100745.78;4990671;28;7015;-74
2023/09/05 12:37:59;;;;;;;;;;;;;;;43.14;19.59;100757.63;4981606;28;6820;-74
2023/09/05 12:40:26;;;;;;;;;;;;;;;43.18;19.62;100752.84;4964171;28;6884;-74
2023/09/05 12:42:52;;;;;;;;;;;;;;;43.21;19.72;100747.19;4958695;28;6868;-74
2023/09/05 12:45:19;;;;;;;;;;;;;;;43.14;20.01;100743.28;4957575;28;6879;-74
2023/09/05 12:47:49;;;;;;;;;;;;;;;43.06;19.82;100743.97;4968503;28;6975;-73